sensor_id;sensor_type;location;lat;lon;timestamp;P1;durP1;ratioP1;P2;durP2;ratioP2
73850;SDS011;62190;51.548;5.688;2023-11-21T00:02:20;13.58;;;8.38;;
73850;SDS011;62190;51.548;5.688;2023-11-21T00:04:51;16.60;;;8.33;;
73850;SDS011;62190;51.548;5.688;2023-11-21T00:07:18;19.17;;;9.25;;
73850;SDS011;62190;51.548;5.688;2023-11-21T00:09:49;17.75;;;9.50;;
73850;SDS011;62190;51.548;5.688;2023-11-21T00:12:16;18.35;;;8.80;;
73850;SDS011;62190;51.548;5.688;2023-11-21T00:14:43;19.80;;;9.85;;
73850;SDS011;62190;51.548;5.688;2023-11-21T00:17:13;23.07;;;9.78;;
73850;SDS011;62190;51.548;5.688;2023-11-21T00:19:41;19.87;;;9.58;;
73850;SDS011;62190;51.548;5.688;2023-11-21T00:22:10;16.97;;;9.05;;
73850;SDS011;62190;51.548;5.688;2023-11-21T00:24:37;18.32;;;9.78;;
73850;SDS011;62190;51.548;5.688;2023-11-21T00:27:06;23.07;;;11.05;;
73850;SDS011;62190;51.548;5.688;2023-11-21T00:29:34;21.02;;;10.23;;
73850;SDS011;62190;51.548;5.688;2023-11-21T00:32:01;20.32;;;11.48;;
73850;SDS011;62190;51.548;5.688;2023-11-21T00:34:28;20.08;;;9.43;;
73850;SDS011;62190;51.548;5.688;2023-11-21T00:36:56;30.68;;;11.10;;
73850;SDS011;62190;51.548;5.688;2023-11-21T00:39:23;17.37;;;10.05;;
73850;SDS011;62190;51.548;5.688;2023-11-21T00:41:52;19.10;;;9.05;;
73850;SDS011;62190;51.548;5.688;2023-11-21T00:44:22;23.35;;;11.28;;
73850;SDS011;62190;51.548;5.688;2023-11-21T00:46:49;14.40;;;8.50;;
73850;SDS011;62190;51.548;5.688;2023-11-21T00:49:19;23.15;;;9.58;;
73850;SDS011;62190;51.548;5.688;2023-11-21T00:51:46;17.30;;;9.90;;
73850;SDS011;62190;51.548;5.688;2023-11-21T00:54:13;22.20;;;9.33;;
73850;SDS011;62190;51.548;5.688;2023-11-21T00:56:43;13.40;;;7.60;;
73850;SDS011;62190;51.548;5.688;2023-11-21T00:59:11;20.10;;;7.75;;
73850;SDS011;62190;51.548;5.688;2023-11-21T01:01:39;18.67;;;9.40;;
73850;SDS011;62190;51.548;5.688;2023-11-21T01:04:08;24.20;;;9.73;;
73850;SDS011;62190;51.548;5.688;2023-11-21T01:06:35;21.27;;;8.98;;
73850;SDS011;62190;51.548;5.688;2023-11-21T01:09:06;21.93;;;8.73;;
73850;SDS011;62190;51.548;5.688;2023-11-21T01:11:34;21.93;;;9.55;;
73850;SDS011;62190;51.548;5.688;2023-11-21T01:14:03;17.00;;;8.25;;
73850;SDS011;62190;51.548;5.688;2023-11-21T01:16:33;24.25;;;11.18;;
73850;SDS011;62190;51.548;5.688;2023-11-21T01:19:01;23.57;;;10.45;;
73850;SDS011;62190;51.548;5.688;2023-11-21T01:21:30;30.62;;;11.40;;
73850;SDS011;62190;51.548;5.688;2023-11-21T01:23:59;26.27;;;11.78;;
73850;SDS011;62190;51.548;5.688;2023-11-21T01:26:26;30.55;;;12.40;;
73850;SDS011;62190;51.548;5.688;2023-11-21T01:28:54;29.85;;;11.68;;
73850;SDS011;62190;51.548;5.688;2023-11-21T01:31:21;24.75;;;11.68;;
73850;SDS011;62190;51.548;5.688;2023-11-21T01:33:48;25.80;;;12.33;;
73850;SDS011;62190;51.548;5.688;2023-11-21T01:36:16;20.75;;;9.75;;
73850;SDS011;62190;51.548;5.688;2023-11-21T01:38:43;18.92;;;9.60;;
73850;SDS011;62190;51.548;5.688;2023-11-21T01:41:13;27.22;;;12.35;;
73850;SDS011;62190;51.548;5.688;2023-11-21T01:43:42;25.35;;;12.15;;
73850;SDS011;62190;51.548;5.688;2023-11-21T01:46:11;31.82;;;13.05;;
73850;SDS011;62190;51.548;5.688;2023-11-21T01:48:42;22.98;;;11.68;;
73850;SDS011;62190;51.548;5.688;2023-11-21T01:51:11;25.65;;;11.35;;
73850;SDS011;62190;51.548;5.688;2023-11-21T01:53:40;23.15;;;12.28;;
73850;SDS011;62190;51.548;5.688;2023-11-21T01:56:07;20.05;;;11.48;;
73850;SDS011;62190;51.548;5.688;2023-11-21T01:58:36;25.75;;;10.85;;
73850;SDS011;62190;51.548;5.688;2023-11-21T02:01:03;26.17;;;12.55;;
73850;SDS011;62190;51.548;5.688;2023-11-21T02:03:31;25.92;;;10.85;;
73850;SDS011;62190;51.548;5.688;2023-11-21T02:05:58;25.35;;;12.25;;
73850;SDS011;62190;51.548;5.688;2023-11-21T02:08:25;19.37;;;11.08;;
73850;SDS011;62190;51.548;5.688;2023-11-21T02:10:53;25.50;;;11.20;;
73850;SDS011;62190;51.548;5.688;2023-11-21T02:13:20;21.42;;;10.35;;
73850;SDS011;62190;51.548;5.688;2023-11-21T02:15:47;18.10;;;9.38;;
73850;SDS011;62190;51.548;5.688;2023-11-21T02:18:17;16.97;;;9.75;;
73850;SDS011;62190;51.548;5.688;2023-11-21T02:20:47;18.23;;;9.70;;
73850;SDS011;62190;51.548;5.688;2023-11-21T02:23:16;19.32;;;9.83;;
73850;SDS011;62190;51.548;5.688;2023-11-21T02:25:44;27.25;;;11.83;;
73850;SDS011;62190;51.548;5.688;2023-11-21T02:28:12;24.90;;;12.15;;
73850;SDS011;62190;51.548;5.688;2023-11-21T02:30:42;22.80;;;11.30;;
73850;SDS011;62190;51.548;5.688;2023-11-21T02:33:10;20.30;;;10.95;;
73850;SDS011;62190;51.548;5.688;2023-11-21T02:35:38;29.37;;;12.93;;
73850;SDS011;62190;51.548;5.688;2023-11-21T02:38:08;23.87;;;11.90;;
73850;SDS011;62190;51.548;5.688;2023-11-21T02:40:42;21.52;;;11.20;;
73850;SDS011;62190;51.548;5.688;2023-11-21T02:43:10;36.50;;;14.05;;
73850;SDS011;62190;51.548;5.688;2023-11-21T02:45:37;27.02;;;11.35;;
73850;SDS011;62190;51.548;5.688;2023-11-21T02:48:06;33.53;;;12.85;;
73850;SDS011;62190;51.548;5.688;2023-11-21T02:50:33;29.07;;;13.72;;
73850;SDS011;62190;51.548;5.688;2023-11-21T02:53:04;27.30;;;13.22;;
73850;SDS011;62190;51.548;5.688;2023-11-21T02:55:35;28.00;;;13.35;;
73850;SDS011;62190;51.548;5.688;2023-11-21T02:58:07;25.70;;;11.90;;
73850;SDS011;62190;51.548;5.688;2023-11-21T03:00:36;24.57;;;12.33;;
73850;SDS011;62190;51.548;5.688;2023-11-21T03:03:03;27.90;;;12.43;;
73850;SDS011;62190;51.548;5.688;2023-11-21T03:05:30;28.75;;;11.53;;
73850;SDS011;62190;51.548;5.688;2023-11-21T03:08:00;28.20;;;12.73;;
73850;SDS011;62190;51.548;5.688;2023-11-21T03:10:29;22.50;;;12.25;;
73850;SDS011;62190;51.548;5.688;2023-11-21T03:12:56;25.88;;;12.50;;
73850;SDS011;62190;51.548;5.688;2023-11-21T03:15:25;29.42;;;12.47;;
73850;SDS011;62190;51.548;5.688;2023-11-21T03:17:54;25.65;;;12.93;;
73850;SDS011;62190;51.548;5.688;2023-11-21T03:20:23;21.30;;;11.55;;
73850;SDS011;62190;51.548;5.688;2023-11-21T03:22:51;26.75;;;11.18;;
73850;SDS011;62190;51.548;5.688;2023-11-21T03:25:18;34.43;;;12.82;;
73850;SDS011;62190;51.548;5.688;2023-11-21T03:27:48;24.37;;;11.80;;
73850;SDS011;62190;51.548;5.688;2023-11-21T03:30:16;28.47;;;13.70;;
73850;SDS011;62190;51.548;5.688;2023-11-21T03:32:46;24.07;;;12.50;;
73850;SDS011;62190;51.548;5.688;2023-11-21T03:35:14;21.93;;;11.68;;
73850;SDS011;62190;51.548;5.688;2023-11-21T03:37:42;26.02;;;12.88;;
73850;SDS011;62190;51.548;5.688;2023-11-21T03:40:14;27.73;;;12.23;;
73850;SDS011;62190;51.548;5.688;2023-11-21T03:42:41;21.45;;;11.25;;
73850;SDS011;62190;51.548;5.688;2023-11-21T03:45:10;24.45;;;12.30;;
73850;SDS011;62190;51.548;5.688;2023-11-21T03:47:43;24.32;;;12.20;;
73850;SDS011;62190;51.548;5.688;2023-11-21T03:50:10;24.02;;;13.28;;
73850;SDS011;62190;51.548;5.688;2023-11-21T03:52:39;29.27;;;12.28;;
73850;SDS011;62190;51.548;5.688;2023-11-21T03:55:10;21.97;;;11.22;;
73850;SDS011;62190;51.548;5.688;2023-11-21T03:57:37;17.42;;;10.00;;
73850;SDS011;62190;51.548;5.688;2023-11-21T04:00:04;26.87;;;12.95;;
73850;SDS011;62190;51.548;5.688;2023-11-21T04:02:34;29.05;;;12.45;;
73850;SDS011;62190;51.548;5.688;2023-11-21T04:05:01;26.02;;;13.50;;
73850;SDS011;62190;51.548;5.688;2023-11-21T04:07:29;23.60;;;11.30;;
73850;SDS011;62190;51.548;5.688;2023-11-21T04:09:56;22.02;;;12.60;;
73850;SDS011;62190;51.548;5.688;2023-11-21T04:12:25;23.60;;;12.35;;
73850;SDS011;62190;51.548;5.688;2023-11-21T04:14:52;27.93;;;12.28;;
73850;SDS011;62190;51.548;5.688;2023-11-21T04:17:19;23.90;;;12.60;;
73850;SDS011;62190;51.548;5.688;2023-11-21T04:19:47;24.23;;;11.90;;
73850;SDS011;62190;51.548;5.688;2023-11-21T04:22:14;23.42;;;12.47;;
73850;SDS011;62190;51.548;5.688;2023-11-21T04:24:45;29.50;;;13.05;;
73850;SDS011;62190;51.548;5.688;2023-11-21T04:27:14;27.25;;;12.15;;
73850;SDS011;62190;51.548;5.688;2023-11-21T04:29:43;25.90;;;12.28;;
73850;SDS011;62190;51.548;5.688;2023-11-21T04:32:15;26.07;;;12.30;;
73850;SDS011;62190;51.548;5.688;2023-11-21T04:34:46;24.77;;;11.40;;
73850;SDS011;62190;51.548;5.688;2023-11-21T04:37:17;26.70;;;12.68;;
73850;SDS011;62190;51.548;5.688;2023-11-21T04:39:46;23.77;;;11.65;;
73850;SDS011;62190;51.548;5.688;2023-11-21T04:42:15;18.45;;;11.12;;
73850;SDS011;62190;51.548;5.688;2023-11-21T04:44:42;20.17;;;10.63;;
73850;SDS011;62190;51.548;5.688;2023-11-21T04:47:12;20.90;;;11.55;;
73850;SDS011;62190;51.548;5.688;2023-11-21T04:49:45;19.52;;;10.13;;
73850;SDS011;62190;51.548;5.688;2023-11-21T04:52:10;23.73;;;11.80;;
73850;SDS011;62190;51.548;5.688;2023-11-21T04:54:38;24.45;;;11.97;;
73850;SDS011;62190;51.548;5.688;2023-11-21T04:57:06;24.45;;;11.53;;
73850;SDS011;62190;51.548;5.688;2023-11-21T04:59:35;22.77;;;11.50;;
73850;SDS011;62190;51.548;5.688;2023-11-21T05:02:05;22.02;;;12.23;;
73850;SDS011;62190;51.548;5.688;2023-11-21T05:04:32;21.95;;;11.20;;
73850;SDS011;62190;51.548;5.688;2023-11-21T05:07:02;23.70;;;10.90;;
73850;SDS011;62190;51.548;5.688;2023-11-21T05:09:31;22.10;;;12.47;;
73850;SDS011;62190;51.548;5.688;2023-11-21T05:12:00;20.70;;;11.18;;
73850;SDS011;62190;51.548;5.688;2023-11-21T05:14:27;22.32;;;11.83;;
73850;SDS011;62190;51.548;5.688;2023-11-21T05:16:56;28.15;;;12.63;;
73850;SDS011;62190;51.548;5.688;2023-11-21T05:19:24;28.17;;;12.65;;
73850;SDS011;62190;51.548;5.688;2023-11-21T05:21:52;20.65;;;10.03;;
73850;SDS011;62190;51.548;5.688;2023-11-21T05:24:19;23.30;;;10.63;;
73850;SDS011;62190;51.548;5.688;2023-11-21T05:26:47;27.40;;;12.40;;
73850;SDS011;62190;51.548;5.688;2023-11-21T05:29:16;22.80;;;12.60;;
73850;SDS011;62190;51.548;5.688;2023-11-21T05:31:45;25.43;;;12.40;;
73850;SDS011;62190;51.548;5.688;2023-11-21T05:34:15;22.67;;;11.85;;
73850;SDS011;62190;51.548;5.688;2023-11-21T05:36:44;23.52;;;11.80;;
73850;SDS011;62190;51.548;5.688;2023-11-21T05:39:13;22.62;;;10.82;;
73850;SDS011;62190;51.548;5.688;2023-11-21T05:41:43;21.30;;;10.78;;
73850;SDS011;62190;51.548;5.688;2023-11-21T05:44:11;22.00;;;10.53;;
73850;SDS011;62190;51.548;5.688;2023-11-21T05:46:42;21.07;;;10.43;;
73850;SDS011;62190;51.548;5.688;2023-11-21T05:49:12;22.82;;;10.78;;
73850;SDS011;62190;51.548;5.688;2023-11-21T05:51:43;30.85;;;13.38;;
73850;SDS011;62190;51.548;5.688;2023-11-21T05:54:13;23.92;;;11.78;;
73850;SDS011;62190;51.548;5.688;2023-11-21T05:56:43;26.02;;;13.43;;
73850;SDS011;62190;51.548;5.688;2023-11-21T05:59:12;22.07;;;12.90;;
73850;SDS011;62190;51.548;5.688;2023-11-21T06:01:40;23.90;;;11.78;;
73850;SDS011;62190;51.548;5.688;2023-11-21T06:04:08;26.75;;;13.10;;
73850;SDS011;62190;51.548;5.688;2023-11-21T06:06:37;27.50;;;11.93;;
73850;SDS011;62190;51.548;5.688;2023-11-21T06:09:08;24.60;;;11.53;;
73850;SDS011;62190;51.548;5.688;2023-11-21T06:11:35;31.23;;;13.28;;
73850;SDS011;62190;51.548;5.688;2023-11-21T06:14:02;29.63;;;12.85;;
73850;SDS011;62190;51.548;5.688;2023-11-21T06:16:31;24.30;;;13.08;;
73850;SDS011;62190;51.548;5.688;2023-11-21T06:19:00;26.48;;;13.43;;
73850;SDS011;62190;51.548;5.688;2023-11-21T06:21:27;25.48;;;12.75;;
73850;SDS011;62190;51.548;5.688;2023-11-21T06:23:58;25.65;;;11.15;;
73850;SDS011;62190;51.548;5.688;2023-11-21T06:26:25;22.27;;;11.78;;
73850;SDS011;62190;51.548;5.688;2023-11-21T06:28:54;19.48;;;10.85;;
73850;SDS011;62190;51.548;5.688;2023-11-21T06:31:22;32.98;;;13.50;;
73850;SDS011;62190;51.548;5.688;2023-11-21T06:33:50;25.10;;;11.88;;
73850;SDS011;62190;51.548;5.688;2023-11-21T06:36:18;29.45;;;13.98;;
73850;SDS011;62190;51.548;5.688;2023-11-21T06:38:45;27.40;;;12.95;;
73850;SDS011;62190;51.548;5.688;2023-11-21T06:41:13;28.73;;;13.70;;
73850;SDS011;62190;51.548;5.688;2023-11-21T06:43:41;25.23;;;13.48;;
73850;SDS011;62190;51.548;5.688;2023-11-21T06:46:10;27.67;;;12.43;;
73850;SDS011;62190;51.548;5.688;2023-11-21T06:48:37;26.20;;;12.90;;
73850;SDS011;62190;51.548;5.688;2023-11-21T06:51:05;25.15;;;12.58;;
73850;SDS011;62190;51.548;5.688;2023-11-21T06:53:32;26.50;;;13.60;;
73850;SDS011;62190;51.548;5.688;2023-11-21T06:56:00;30.08;;;12.63;;
73850;SDS011;62190;51.548;5.688;2023-11-21T06:58:27;28.38;;;13.80;;
73850;SDS011;62190;51.548;5.688;2023-11-21T07:00:54;30.00;;;12.80;;
73850;SDS011;62190;51.548;5.688;2023-11-21T07:03:23;25.05;;;12.73;;
73850;SDS011;62190;51.548;5.688;2023-11-21T07:05:51;27.05;;;13.40;;
73850;SDS011;62190;51.548;5.688;2023-11-21T07:08:19;23.60;;;12.50;;
73850;SDS011;62190;51.548;5.688;2023-11-21T07:10:46;34.80;;;12.60;;
73850;SDS011;62190;51.548;5.688;2023-11-21T07:13:13;38.90;;;14.73;;
73850;SDS011;62190;51.548;5.688;2023-11-21T07:15:41;37.08;;;15.30;;
73850;SDS011;62190;51.548;5.688;2023-11-21T07:18:09;26.55;;;13.28;;
73850;SDS011;62190;51.548;5.688;2023-11-21T07:20:37;37.38;;;15.60;;
73850;SDS011;62190;51.548;5.688;2023-11-21T07:23:04;26.95;;;12.53;;
73850;SDS011;62190;51.548;5.688;2023-11-21T07:25:31;27.48;;;13.15;;
73850;SDS011;62190;51.548;5.688;2023-11-21T07:28:02;33.40;;;14.38;;
73850;SDS011;62190;51.548;5.688;2023-11-21T07:30:30;27.58;;;12.58;;
73850;SDS011;62190;51.548;5.688;2023-11-21T07:32:58;32.45;;;13.72;;
73850;SDS011;62190;51.548;5.688;2023-11-21T07:35:25;31.60;;;14.18;;
73850;SDS011;62190;51.548;5.688;2023-11-21T07:37:55;29.30;;;13.30;;
73850;SDS011;62190;51.548;5.688;2023-11-21T07:40:23;26.17;;;12.20;;
73850;SDS011;62190;51.548;5.688;2023-11-21T07:42:52;35.00;;;14.95;;
73850;SDS011;62190;51.548;5.688;2023-11-21T07:45:21;39.80;;;14.98;;
73850;SDS011;62190;51.548;5.688;2023-11-21T07:47:48;27.25;;;13.32;;
73850;SDS011;62190;51.548;5.688;2023-11-21T07:50:15;28.85;;;13.30;;
73850;SDS011;62190;51.548;5.688;2023-11-21T07:52:44;31.35;;;12.70;;
73850;SDS011;62190;51.548;5.688;2023-11-21T07:55:11;33.18;;;14.15;;
73850;SDS011;62190;51.548;5.688;2023-11-21T07:57:39;26.35;;;11.50;;
73850;SDS011;62190;51.548;5.688;2023-11-21T08:00:06;30.45;;;12.68;;
73850;SDS011;62190;51.548;5.688;2023-11-21T08:02:34;26.45;;;13.50;;
73850;SDS011;62190;51.548;5.688;2023-11-21T08:05:02;37.17;;;14.63;;
73850;SDS011;62190;51.548;5.688;2023-11-21T08:07:29;26.35;;;13.28;;
73850;SDS011;62190;51.548;5.688;2023-11-21T08:09:56;29.12;;;13.90;;
73850;SDS011;62190;51.548;5.688;2023-11-21T08:12:24;30.20;;;13.85;;
73850;SDS011;62190;51.548;5.688;2023-11-21T08:14:53;24.07;;;12.82;;
73850;SDS011;62190;51.548;5.688;2023-11-21T08:17:20;35.58;;;13.78;;
73850;SDS011;62190;51.548;5.688;2023-11-21T08:19:49;29.27;;;14.03;;
73850;SDS011;62190;51.548;5.688;2023-11-21T08:22:17;33.40;;;14.00;;
73850;SDS011;62190;51.548;5.688;2023-11-21T08:24:44;27.77;;;12.15;;
73850;SDS011;62190;51.548;5.688;2023-11-21T08:27:12;28.12;;;13.35;;
73850;SDS011;62190;51.548;5.688;2023-11-21T08:29:47;27.17;;;11.85;;
73850;SDS011;62190;51.548;5.688;2023-11-21T08:32:14;26.12;;;12.60;;
73850;SDS011;62190;51.548;5.688;2023-11-21T08:34:41;30.90;;;13.35;;
73850;SDS011;62190;51.548;5.688;2023-11-21T08:37:14;26.00;;;13.22;;
73850;SDS011;62190;51.548;5.688;2023-11-21T08:39:41;32.42;;;13.60;;
73850;SDS011;62190;51.548;5.688;2023-11-21T08:42:08;30.85;;;13.80;;
73850;SDS011;62190;51.548;5.688;2023-11-21T08:44:35;30.08;;;12.45;;
73850;SDS011;62190;51.548;5.688;2023-11-21T08:47:04;31.70;;;13.05;;
73850;SDS011;62190;51.548;5.688;2023-11-21T08:49:31;27.10;;;13.25;;
73850;SDS011;62190;51.548;5.688;2023-11-21T08:51:59;26.57;;;12.88;;
73850;SDS011;62190;51.548;5.688;2023-11-21T08:54:26;23.38;;;11.93;;
73850;SDS011;62190;51.548;5.688;2023-11-21T08:56:53;34.25;;;13.28;;
73850;SDS011;62190;51.548;5.688;2023-11-21T08:59:21;28.77;;;12.35;;
73850;SDS011;62190;51.548;5.688;2023-11-21T09:01:48;27.58;;;12.73;;
73850;SDS011;62190;51.548;5.688;2023-11-21T09:04:16;28.15;;;12.10;;
73850;SDS011;62190;51.548;5.688;2023-11-21T09:06:43;25.70;;;11.68;;
73850;SDS011;62190;51.548;5.688;2023-11-21T09:09:11;24.12;;;11.43;;
73850;SDS011;62190;51.548;5.688;2023-11-21T09:11:38;29.27;;;12.78;;
73850;SDS011;62190;51.548;5.688;2023-11-21T09:14:05;21.97;;;11.80;;
73850;SDS011;62190;51.548;5.688;2023-11-21T09:16:34;22.50;;;11.97;;
73850;SDS011;62190;51.548;5.688;2023-11-21T09:19:01;22.48;;;11.60;;
73850;SDS011;62190;51.548;5.688;2023-11-21T09:21:30;31.12;;;13.28;;
73850;SDS011;62190;51.548;5.688;2023-11-21T09:23:58;26.23;;;11.68;;
73850;SDS011;62190;51.548;5.688;2023-11-21T09:26:26;25.08;;;11.33;;
73850;SDS011;62190;51.548;5.688;2023-11-21T09:28:53;21.45;;;11.35;;
73850;SDS011;62190;51.548;5.688;2023-11-21T09:31:22;26.93;;;12.53;;
73850;SDS011;62190;51.548;5.688;2023-11-21T09:33:50;32.67;;;13.18;;
73850;SDS011;62190;51.548;5.688;2023-11-21T09:36:17;23.27;;;12.23;;
73850;SDS011;62190;51.548;5.688;2023-11-21T09:38:44;25.57;;;11.70;;
73850;SDS011;62190;51.548;5.688;2023-11-21T09:41:15;26.60;;;12.70;;
73850;SDS011;62190;51.548;5.688;2023-11-21T09:43:48;21.95;;;11.78;;
73850;SDS011;62190;51.548;5.688;2023-11-21T09:46:16;25.60;;;12.82;;
73850;SDS011;62190;51.548;5.688;2023-11-21T09:48:51;30.82;;;12.47;;
73850;SDS011;62190;51.548;5.688;2023-11-21T09:51:17;23.18;;;11.63;;
73850;SDS011;62190;51.548;5.688;2023-11-21T09:53:48;25.25;;;11.53;;
73850;SDS011;62190;51.548;5.688;2023-11-21T09:56:18;27.98;;;12.43;;
73850;SDS011;62190;51.548;5.688;2023-11-21T09:58:47;31.90;;;13.40;;
73850;SDS011;62190;51.548;5.688;2023-11-21T10:01:19;25.37;;;12.60;;
73850;SDS011;62190;51.548;5.688;2023-11-21T10:03:47;21.37;;;12.68;;
73850;SDS011;62190;51.548;5.688;2023-11-21T10:06:15;35.25;;;13.50;;
73850;SDS011;62190;51.548;5.688;2023-11-21T10:08:43;28.95;;;12.47;;
73850;SDS011;62190;51.548;5.688;2023-11-21T10:11:11;28.25;;;12.10;;
73850;SDS011;62190;51.548;5.688;2023-11-21T10:13:40;31.65;;;13.78;;
73850;SDS011;62190;51.548;5.688;2023-11-21T10:16:07;27.55;;;12.25;;
73850;SDS011;62190;51.548;5.688;2023-11-21T10:18:37;34.78;;;13.38;;
73850;SDS011;62190;51.548;5.688;2023-11-21T10:21:06;29.67;;;11.78;;
73850;SDS011;62190;51.548;5.688;2023-11-21T10:23:35;37.48;;;13.85;;
73850;SDS011;62190;51.548;5.688;2023-11-21T10:26:09;34.58;;;14.10;;
73850;SDS011;62190;51.548;5.688;2023-11-21T10:28:39;28.17;;;12.13;;
73850;SDS011;62190;51.548;5.688;2023-11-21T10:31:07;30.60;;;13.18;;
73850;SDS011;62190;51.548;5.688;2023-11-21T10:33:35;31.85;;;13.60;;
73850;SDS011;62190;51.548;5.688;2023-11-21T10:36:03;22.32;;;12.15;;
73850;SDS011;62190;51.548;5.688;2023-11-21T10:38:33;24.82;;;12.40;;
73850;SDS011;62190;51.548;5.688;2023-11-21T10:41:01;35.43;;;13.58;;
73850;SDS011;62190;51.548;5.688;2023-11-21T10:43:30;28.50;;;13.75;;
73850;SDS011;62190;51.548;5.688;2023-11-21T10:45:57;25.62;;;11.90;;
73850;SDS011;62190;51.548;5.688;2023-11-21T10:48:25;24.47;;;13.22;;
73850;SDS011;62190;51.548;5.688;2023-11-21T10:50:53;29.10;;;13.90;;
73850;SDS011;62190;51.548;5.688;2023-11-21T10:53:22;29.07;;;13.32;;
73850;SDS011;62190;51.548;5.688;2023-11-21T10:55:49;31.82;;;13.10;;
73850;SDS011;62190;51.548;5.688;2023-11-21T10:58:16;35.05;;;14.20;;
73850;SDS011;62190;51.548;5.688;2023-11-21T11:00:44;41.85;;;13.88;;
73850;SDS011;62190;51.548;5.688;2023-11-21T11:03:11;30.82;;;12.95;;
73850;SDS011;62190;51.548;5.688;2023-11-21T11:05:40;26.10;;;12.70;;
73850;SDS011;62190;51.548;5.688;2023-11-21T11:08:08;31.87;;;13.53;;
73850;SDS011;62190;51.548;5.688;2023-11-21T11:10:36;34.18;;;14.53;;
73850;SDS011;62190;51.548;5.688;2023-11-21T11:13:04;36.77;;;14.20;;
73850;SDS011;62190;51.548;5.688;2023-11-21T11:15:32;24.52;;;11.95;;
73850;SDS011;62190;51.548;5.688;2023-11-21T11:18:00;31.45;;;13.75;;
73850;SDS011;62190;51.548;5.688;2023-11-21T11:20:36;33.30;;;13.60;;
73850;SDS011;62190;51.548;5.688;2023-11-21T11:28:46;33.15;;;13.62;;
73850;SDS011;62190;51.548;5.688;2023-11-21T11:31:15;42.33;;;13.53;;
73850;SDS011;62190;51.548;5.688;2023-11-21T11:34:01;30.23;;;12.73;;
73850;SDS011;62190;51.548;5.688;2023-11-21T11:36:44;37.08;;;12.78;;
73850;SDS011;62190;51.548;5.688;2023-11-21T11:42:13;35.30;;;13.90;;
73850;SDS011;62190;51.548;5.688;2023-11-21T11:47:27;34.38;;;13.20;;
73850;SDS011;62190;51.548;5.688;2023-11-21T11:49:57;34.85;;;13.62;;
73850;SDS011;62190;51.548;5.688;2023-11-21T11:52:38;35.43;;;13.90;;
73850;SDS011;62190;51.548;5.688;2023-11-21T11:55:12;29.98;;;14.07;;
73850;SDS011;62190;51.548;5.688;2023-11-21T11:57:42;32.90;;;13.98;;
73850;SDS011;62190;51.548;5.688;2023-11-21T12:02:56;26.35;;;12.50;;
73850;SDS011;62190;51.548;5.688;2023-11-21T12:05:25;28.98;;;12.98;;
73850;SDS011;62190;51.548;5.688;2023-11-21T12:07:54;31.02;;;14.38;;
73850;SDS011;62190;51.548;5.688;2023-11-21T12:10:30;29.40;;;12.78;;
73850;SDS011;62190;51.548;5.688;2023-11-21T12:12:59;31.52;;;14.15;;
73850;SDS011;62190;51.548;5.688;2023-11-21T12:15:30;26.02;;;13.75;;
73850;SDS011;62190;51.548;5.688;2023-11-21T12:17:57;30.88;;;12.85;;
73850;SDS011;62190;51.548;5.688;2023-11-21T12:20:25;32.48;;;14.40;;
73850;SDS011;62190;51.548;5.688;2023-11-21T12:22:57;29.42;;;12.00;;
73850;SDS011;62190;51.548;5.688;2023-11-21T12:25:26;38.60;;;14.15;;
73850;SDS011;62190;51.548;5.688;2023-11-21T12:27:57;33.45;;;14.38;;
73850;SDS011;62190;51.548;5.688;2023-11-21T12:30:28;30.97;;;14.65;;
73850;SDS011;62190;51.548;5.688;2023-11-21T12:32:57;33.38;;;13.80;;
73850;SDS011;62190;51.548;5.688;2023-11-21T12:35:33;32.75;;;14.35;;
73850;SDS011;62190;51.548;5.688;2023-11-21T12:38:01;30.95;;;12.63;;
73850;SDS011;62190;51.548;5.688;2023-11-21T12:40:30;28.67;;;14.45;;
73850;SDS011;62190;51.548;5.688;2023-11-21T12:42:58;31.23;;;12.68;;
73850;SDS011;62190;51.548;5.688;2023-11-21T12:45:28;29.57;;;12.95;;
73850;SDS011;62190;51.548;5.688;2023-11-21T12:47:59;34.18;;;13.48;;
73850;SDS011;62190;51.548;5.688;2023-11-21T12:50:30;32.80;;;13.80;;
73850;SDS011;62190;51.548;5.688;2023-11-21T12:53:09;35.63;;;14.07;;
73850;SDS011;62190;51.548;5.688;2023-11-21T12:55:33;30.57;;;12.60;;
73850;SDS011;62190;51.548;5.688;2023-11-21T12:58:05;28.38;;;13.25;;
73850;SDS011;62190;51.548;5.688;2023-11-21T13:00:48;35.73;;;15.10;;
73850;SDS011;62190;51.548;5.688;2023-11-21T13:03:17;28.57;;;13.55;;
73850;SDS011;62190;51.548;5.688;2023-11-21T13:05:50;36.15;;;14.45;;
73850;SDS011;62190;51.548;5.688;2023-11-21T13:08:20;36.83;;;14.63;;
73850;SDS011;62190;51.548;5.688;2023-11-21T13:10:50;32.30;;;13.98;;
73850;SDS011;62190;51.548;5.688;2023-11-21T13:13:20;39.88;;;15.43;;
73850;SDS011;62190;51.548;5.688;2023-11-21T13:15:53;38.92;;;15.35;;
73850;SDS011;62190;51.548;5.688;2023-11-21T13:18:26;34.35;;;16.27;;
73850;SDS011;62190;51.548;5.688;2023-11-21T13:20:55;35.92;;;15.55;;
73850;SDS011;62190;51.548;5.688;2023-11-21T13:23:24;46.33;;;17.07;;
73850;SDS011;62190;51.548;5.688;2023-11-21T13:25:54;52.10;;;17.00;;
73850;SDS011;62190;51.548;5.688;2023-11-21T13:28:22;50.17;;;18.52;;
73850;SDS011;62190;51.548;5.688;2023-11-21T13:30:51;41.00;;;16.62;;
73850;SDS011;62190;51.548;5.688;2023-11-21T13:33:18;43.52;;;17.37;;
73850;SDS011;62190;51.548;5.688;2023-11-21T13:35:47;54.03;;;17.90;;
73850;SDS011;62190;51.548;5.688;2023-11-21T13:38:16;45.40;;;17.82;;
73850;SDS011;62190;51.548;5.688;2023-11-21T13:40:52;40.58;;;18.27;;
73850;SDS011;62190;51.548;5.688;2023-11-21T13:43:17;39.63;;;15.75;;
73850;SDS011;62190;51.548;5.688;2023-11-21T13:45:46;42.70;;;16.32;;
73850;SDS011;62190;51.548;5.688;2023-11-21T13:48:19;38.00;;;15.38;;
73850;SDS011;62190;51.548;5.688;2023-11-21T13:50:48;46.98;;;15.32;;
73850;SDS011;62190;51.548;5.688;2023-11-21T13:53:24;42.45;;;14.63;;
73850;SDS011;62190;51.548;5.688;2023-11-21T13:55:51;40.75;;;15.72;;
73850;SDS011;62190;51.548;5.688;2023-11-21T13:58:21;37.17;;;16.57;;
73850;SDS011;62190;51.548;5.688;2023-11-21T14:00:50;36.20;;;15.93;;
73850;SDS011;62190;51.548;5.688;2023-11-21T14:03:23;37.30;;;14.50;;
73850;SDS011;62190;51.548;5.688;2023-11-21T14:05:52;38.25;;;16.05;;
73850;SDS011;62190;51.548;5.688;2023-11-21T14:08:21;29.80;;;13.85;;
73850;SDS011;62190;51.548;5.688;2023-11-21T14:10:50;36.08;;;15.20;;
73850;SDS011;62190;51.548;5.688;2023-11-21T14:13:19;35.10;;;14.87;;
73850;SDS011;62190;51.548;5.688;2023-11-21T14:15:49;30.92;;;12.73;;
73850;SDS011;62190;51.548;5.688;2023-11-21T14:18:18;32.23;;;13.25;;
73850;SDS011;62190;51.548;5.688;2023-11-21T14:20:47;25.05;;;11.63;;
73850;SDS011;62190;51.548;5.688;2023-11-21T14:23:14;29.15;;;12.68;;
73850;SDS011;62190;51.548;5.688;2023-11-21T14:25:42;24.90;;;10.95;;
73850;SDS011;62190;51.548;5.688;2023-11-21T14:28:09;24.47;;;11.08;;
73850;SDS011;62190;51.548;5.688;2023-11-21T14:30:37;30.00;;;12.70;;
73850;SDS011;62190;51.548;5.688;2023-11-21T14:33:05;29.20;;;11.93;;
73850;SDS011;62190;51.548;5.688;2023-11-21T14:35:36;25.75;;;11.22;;
73850;SDS011;62190;51.548;5.688;2023-11-21T14:38:07;20.50;;;9.43;;
73850;SDS011;62190;51.548;5.688;2023-11-21T14:40:36;21.40;;;10.00;;
73850;SDS011;62190;51.548;5.688;2023-11-21T14:43:03;25.65;;;11.12;;
73850;SDS011;62190;51.548;5.688;2023-11-21T14:45:33;21.33;;;10.30;;
73850;SDS011;62190;51.548;5.688;2023-11-21T14:48:09;19.98;;;9.00;;